createdAt,value
2022-08-14T00:01:46.262Z,17.17
2022-08-14T00:04:35.970Z,17.13
2022-08-14T00:07:11.379Z,17.14
2022-08-14T00:09:56.373Z,17.13
2022-08-14T00:12:33.875Z,17.06
2022-08-14T00:15:11.768Z,17.05
2022-08-14T00:17:48.072Z,17.04
2022-08-14T00:20:23.788Z,16.98
2022-08-14T00:22:56.949Z,16.99
2022-08-14T00:25:25.232Z,16.95
2022-08-14T00:28:10.535Z,16.99
2022-08-14T00:30:42.839Z,16.86
2022-08-14T00:33:16.204Z,16.85
2022-08-14T00:36:35.753Z,16.70
2022-08-14T00:38:32.004Z,16.69
2022-08-14T00:41:01.065Z,16.66
2022-08-14T00:43:31.608Z,16.59
2022-08-14T00:46:08.101Z,16.59
2022-08-14T00:48:36.757Z,16.49
2022-08-14T00:51:07.237Z,16.50
2022-08-14T00:53:33.814Z,16.53
2022-08-14T00:56:00.413Z,16.51
2022-08-14T00:58:32.428Z,16.41
2022-08-14T01:01:08.241Z,16.47
2022-08-14T01:03:36.504Z,16.38
2022-08-14T01:06:02.937Z,16.39
2022-08-14T01:08:52.066Z,16.43
2022-08-14T01:11:22.135Z,16.38
2022-08-14T01:13:56.225Z,16.28
2022-08-14T01:16:31.155Z,16.34
2022-08-14T01:19:02.316Z,16.18
2022-08-14T01:21:38.746Z,16.26
2022-08-14T01:24:13.111Z,16.20
2022-08-14T01:26:40.142Z,16.22
2022-08-14T01:29:06.602Z,16.18
2022-08-14T01:31:37.122Z,16.29
2022-08-14T01:35:20.773Z,16.27
2022-08-14T01:36:52.539Z,16.29
2022-08-14T01:39:20.786Z,16.20
2022-08-14T01:41:49.314Z,16.20
2022-08-14T01:44:32.059Z,16.14
2022-08-14T01:47:05.878Z,16.08
2022-08-14T01:49:35.147Z,16.13
2022-08-14T01:52:02.030Z,16.02
2022-08-14T01:54:33.782Z,15.96
2022-08-14T01:57:04.753Z,15.89
2022-08-14T01:59:38.088Z,15.83
2022-08-14T02:02:09.967Z,15.90
2022-08-14T02:04:56.811Z,15.80
2022-08-14T02:07:44.555Z,15.78
2022-08-14T02:10:16.014Z,15.70
2022-08-14T02:12:42.848Z,15.72
2022-08-14T02:15:10.660Z,15.66
2022-08-14T02:17:37.494Z,15.55
2022-08-14T02:20:04.970Z,15.66
2022-08-14T02:22:33.364Z,15.53
2022-08-14T02:25:01.344Z,15.58
2022-08-14T02:28:23.365Z,15.55
2022-08-14T02:30:14.556Z,15.60
2022-08-14T02:32:42.862Z,15.65
2022-08-14T02:35:10.867Z,15.66
2022-08-14T02:37:47.190Z,15.56
2022-08-14T02:40:15.129Z,15.54
2022-08-14T02:42:55.338Z,15.51
2022-08-14T02:45:33.320Z,15.52
2022-08-14T02:48:05.305Z,15.45
2022-08-14T02:50:36.609Z,15.46
2022-08-14T02:53:03.511Z,15.44
2022-08-14T02:55:30.197Z,15.40
2022-08-14T02:57:58.220Z,15.39
2022-08-14T03:00:32.048Z,15.30
2022-08-14T03:02:59.393Z,15.33
2022-08-14T03:05:26.442Z,15.36
2022-08-14T03:07:53.035Z,15.30
2022-08-14T03:10:28.193Z,15.20
2022-08-14T03:13:00.846Z,15.30
2022-08-14T03:15:27.355Z,15.24
2022-08-14T03:17:57.910Z,15.27
2022-08-14T03:20:26.920Z,15.25
2022-08-14T03:22:53.536Z,15.29
2022-08-14T03:25:20.056Z,15.33
2022-08-14T03:27:48.517Z,15.31
2022-08-14T03:30:24.647Z,15.25
2022-08-14T03:33:08.191Z,15.30
2022-08-14T03:35:39.878Z,15.36
2022-08-14T03:39:12.241Z,15.34
2022-08-14T03:40:55.747Z,15.26
2022-08-14T03:43:22.125Z,15.21
2022-08-14T03:45:48.834Z,15.24
2022-08-14T03:48:30.376Z,15.23
2022-08-14T03:50:58.742Z,15.19
2022-08-14T03:53:25.395Z,15.11
2022-08-14T03:55:52.398Z,15.09
2022-08-14T03:58:23.509Z,15.05
2022-08-14T04:00:50.384Z,15.06
2022-08-14T04:03:24.377Z,14.97
2022-08-14T04:05:51.098Z,14.89
2022-08-14T04:08:29.522Z,14.79
2022-08-14T04:11:01.626Z,14.84
2022-08-14T04:13:32.057Z,14.77
2022-08-14T04:16:01.853Z,14.68
2022-08-14T04:18:32.101Z,14.75
2022-08-14T04:21:00.544Z,14.74
2022-08-14T04:23:29.758Z,14.80
2022-08-14T04:26:14.834Z,14.70
2022-08-14T04:29:01.629Z,14.68
2022-08-14T04:33:10.596Z,14.75
2022-08-14T04:34:27.195Z,14.74
2022-08-14T04:36:55.001Z,14.69
2022-08-14T04:39:21.670Z,14.75
2022-08-14T04:41:48.033Z,14.88
2022-08-14T04:44:35.965Z,14.81
2022-08-14T04:47:03.281Z,14.77
2022-08-14T04:49:30.354Z,14.81
2022-08-14T04:51:56.896Z,14.91
2022-08-14T04:54:27.081Z,14.85
2022-08-14T04:56:56.934Z,14.98
2022-08-14T04:59:24.528Z,14.92
2022-08-14T05:01:55.200Z,14.87
2022-08-14T05:04:23.403Z,14.84
2022-08-14T05:06:53.459Z,15.04
2022-08-14T05:09:21.671Z,15.05
2022-08-14T05:11:48.086Z,15.04
2022-08-14T05:14:16.907Z,15.22
2022-08-14T05:17:01.854Z,15.20
2022-08-14T05:19:29.301Z,15.28
2022-08-14T05:22:00.942Z,15.39
2022-08-14T05:24:41.961Z,15.56
2022-08-14T05:27:10.136Z,15.70
2022-08-14T05:29:36.468Z,15.79
2022-08-14T05:32:03.104Z,15.88
2022-08-14T05:34:31.470Z,16.20
2022-08-14T05:37:02.010Z,16.47
2022-08-14T05:39:29.474Z,16.82
2022-08-14T05:41:55.857Z,17.36
2022-08-14T05:44:24.827Z,18.17
2022-08-14T05:46:55.681Z,19.07
2022-08-14T05:49:23.112Z,19.98
2022-08-14T05:51:52.526Z,20.99
2022-08-14T05:54:26.600Z,22.01
2022-08-14T05:56:53.586Z,22.95
2022-08-14T05:59:36.486Z,23.72
2022-08-14T06:02:06.316Z,24.49
2022-08-14T06:04:32.801Z,25.11
2022-08-14T06:06:59.325Z,25.60
2022-08-14T06:09:25.758Z,25.99
2022-08-14T06:11:52.324Z,26.01
2022-08-14T06:14:21.289Z,26.33
2022-08-14T06:16:53.114Z,26.40
2022-08-14T06:19:20.222Z,26.96
2022-08-14T06:21:54.420Z,27.38
2022-08-14T06:24:24.550Z,27.55
2022-08-14T06:26:56.930Z,27.70
2022-08-14T06:29:32.129Z,28.15
2022-08-14T06:32:38.853Z,28.67
2022-08-14T06:35:03.149Z,28.80
2022-08-14T06:37:43.559Z,29.47
2022-08-14T06:40:25.561Z,29.94
2022-08-14T06:42:54.714Z,30.73
2022-08-14T06:45:21.285Z,31.38
2022-08-14T06:47:52.577Z,31.66
2022-08-14T06:50:21.675Z,31.39
2022-08-14T06:52:55.565Z,31.67
2022-08-14T06:55:25.953Z,31.77
2022-08-14T06:57:55.165Z,31.87
2022-08-14T07:00:27.263Z,31.92
2022-08-14T07:02:57.437Z,31.54
2022-08-14T07:05:24.373Z,31.62
2022-08-14T07:07:51.435Z,31.80
2022-08-14T07:10:18.492Z,31.67
2022-08-14T07:12:56.297Z,31.62
2022-08-14T07:15:29.438Z,31.51
2022-08-14T07:17:55.875Z,31.12
2022-08-14T07:20:30.735Z,31.05
2022-08-14T07:22:59.730Z,31.28
2022-08-14T07:25:32.806Z,31.08
2022-08-14T07:28:00.138Z,31.31
2022-08-14T07:30:33.404Z,31.23
2022-08-14T07:33:01.565Z,31.63
2022-08-14T07:35:30.311Z,32.10
2022-08-14T07:38:04.977Z,32.66
2022-08-14T07:40:31.732Z,32.97
2022-08-14T07:43:14.226Z,33.28
2022-08-14T07:45:41.492Z,33.21
2022-08-14T07:48:14.956Z,33.16
2022-08-14T07:50:43.156Z,32.94
2022-08-14T07:53:13.833Z,32.77
2022-08-14T07:55:42.009Z,33.12
2022-08-14T07:58:21.279Z,33.32
2022-08-14T08:00:56.640Z,33.33
2022-08-14T08:03:25.233Z,33.46
2022-08-14T08:05:54.660Z,33.38
2022-08-14T08:08:27.430Z,32.91
2022-08-14T08:11:03.186Z,33.35
2022-08-14T08:13:33.436Z,33.64
2022-08-14T08:16:00.940Z,33.56
2022-08-14T08:18:29.587Z,33.27
2022-08-14T08:20:59.465Z,33.07
2022-08-14T08:23:30.312Z,33.24
2022-08-14T08:26:07.669Z,33.44
2022-08-14T08:28:34.449Z,33.73
2022-08-14T08:31:03.988Z,33.74
2022-08-14T08:33:36.989Z,33.49
2022-08-14T08:36:12.603Z,33.63
2022-08-14T08:39:14.968Z,33.64
2022-08-14T08:41:25.764Z,33.51
2022-08-14T08:43:53.177Z,33.90
2022-08-14T08:46:21.370Z,34.14
2022-08-14T08:51:34.825Z,34.16
2022-08-14T08:54:04.728Z,34.37
2022-08-14T08:56:51.991Z,34.56
2022-08-14T08:59:31.236Z,34.74
2022-08-14T09:02:06.735Z,34.90
2022-08-14T09:04:44.943Z,34.56
2022-08-14T09:07:11.735Z,34.32
2022-08-14T09:09:54.164Z,34.63
2022-08-14T09:12:26.948Z,34.34
2022-08-14T09:14:54.266Z,34.32
2022-08-14T09:17:20.750Z,34.34
2022-08-14T09:19:53.593Z,34.35
2022-08-14T09:22:35.642Z,34.40
2022-08-14T09:25:07.335Z,33.92
2022-08-14T09:27:35.058Z,34.25
2022-08-14T09:30:01.702Z,34.23
2022-08-14T09:33:08.919Z,34.11
2022-08-14T09:36:06.705Z,33.97
2022-08-14T09:38:46.077Z,34.03
2022-08-14T09:42:17.692Z,33.62
2022-08-14T09:44:45.831Z,33.17
2022-08-14T09:47:14.775Z,33.28
2022-08-14T09:49:41.381Z,33.13
2022-08-14T09:52:33.217Z,32.92
2022-08-14T09:55:00.199Z,32.47
2022-08-14T09:57:29.144Z,32.37
2022-08-14T09:59:56.415Z,32.39
2022-08-14T10:02:24.081Z,32.20
2022-08-14T10:05:01.278Z,32.29
2022-08-14T10:07:36.415Z,32.25
2022-08-14T10:10:23.662Z,32.49
2022-08-14T10:12:54.747Z,32.78
2022-08-14T10:15:29.969Z,32.89
2022-08-14T10:18:17.468Z,32.91
2022-08-14T10:20:59.269Z,33.06
2022-08-14T10:23:30.035Z,33.24
2022-08-14T10:26:06.020Z,33.27
2022-08-14T10:29:18.784Z,33.13
2022-08-14T10:31:29.980Z,33.05
2022-08-14T10:34:14.228Z,33.06
2022-08-14T10:36:47.852Z,33.06
2022-08-14T10:39:22.718Z,33.05
2022-08-14T10:42:04.753Z,32.96
2022-08-14T10:44:45.149Z,32.93
2022-08-14T10:47:39.944Z,33.05
2022-08-14T10:50:00.908Z,33.02
2022-08-14T10:52:31.252Z,32.96
2022-08-14T10:55:15.867Z,33.00
2022-08-14T10:57:55.853Z,32.86
2022-08-14T11:00:30.258Z,32.85
2022-08-14T11:03:55.376Z,33.04
2022-08-14T11:05:56.503Z,33.12
2022-08-14T11:08:33.312Z,33.18
2022-08-14T11:11:05.053Z,33.08
2022-08-14T11:13:31.989Z,33.10
2022-08-14T11:16:01.272Z,33.16
2022-08-14T11:18:32.014Z,33.44
2022-08-14T11:21:02.253Z,33.55
2022-08-14T11:23:37.790Z,33.47
2022-08-14T11:26:07.577Z,33.62
2022-08-14T11:28:48.278Z,33.91
2022-08-14T11:31:22.476Z,34.23
2022-08-14T11:33:53.334Z,34.18
2022-08-14T11:36:24.179Z,34.12
2022-08-14T11:39:18.939Z,33.89
2022-08-14T11:42:00.640Z,33.59
2022-08-14T11:44:47.720Z,33.75
2022-08-14T11:47:14.314Z,33.81
2022-08-14T11:49:41.171Z,33.69
2022-08-14T11:52:07.565Z,33.69
2022-08-14T11:54:35.225Z,33.67
2022-08-14T11:57:02.332Z,33.68
2022-08-14T11:59:33.351Z,33.65
2022-08-14T12:02:39.124Z,33.59
2022-08-14T12:05:00.893Z,33.74
2022-08-14T12:07:30.833Z,33.81
2022-08-14T12:09:58.997Z,34.01
2022-08-14T12:12:35.237Z,34.25
2022-08-14T12:15:04.394Z,34.47
2022-08-14T12:17:47.350Z,34.39
2022-08-14T12:20:16.070Z,34.41
2022-08-14T12:22:56.861Z,34.43
2022-08-14T12:25:24.602Z,34.48
2022-08-14T12:27:54.534Z,34.45
2022-08-14T12:30:42.689Z,34.15
2022-08-14T12:33:32.958Z,34.22
2022-08-14T12:36:04.148Z,34.25
2022-08-14T12:38:43.750Z,34.39
2022-08-14T12:41:20.417Z,34.42
2022-08-14T12:43:55.566Z,34.28
2022-08-14T12:46:35.969Z,34.20
2022-08-14T12:49:18.077Z,33.97
2022-08-14T12:51:56.659Z,33.75
2022-08-14T12:54:28.537Z,33.70
2022-08-14T12:57:09.227Z,33.56
2022-08-14T12:59:42.722Z,33.44
2022-08-14T13:02:25.471Z,33.18
2022-08-14T13:04:54.679Z,33.19
2022-08-14T13:07:21.622Z,33.24
2022-08-14T13:09:55.523Z,33.38
2022-08-14T13:12:34.801Z,33.42
2022-08-14T13:15:09.312Z,33.27
2022-08-14T13:17:47.676Z,33.23
2022-08-14T13:20:23.528Z,33.25
2022-08-14T13:22:53.380Z,33.26
2022-08-14T13:25:23.253Z,33.31
2022-08-14T13:27:54.634Z,33.54
2022-08-14T13:30:24.257Z,33.55
2022-08-14T13:32:58.113Z,33.34
2022-08-14T13:35:25.761Z,33.23
2022-08-14T13:37:53.682Z,33.10
2022-08-14T13:40:26.345Z,33.13
2022-08-14T13:42:54.337Z,33.12
2022-08-14T13:45:21.085Z,33.06
2022-08-14T13:47:48.310Z,33.13
2022-08-14T13:50:20.335Z,33.32
2022-08-14T13:52:53.192Z,33.28
2022-08-14T13:55:27.937Z,33.38
2022-08-14T13:58:05.156Z,33.38
2022-08-14T14:00:52.842Z,33.53
2022-08-14T14:03:23.345Z,33.64
2022-08-14T14:05:53.824Z,33.71
2022-08-14T14:08:46.238Z,33.79
2022-08-14T14:11:09.617Z,33.50
2022-08-14T14:13:37.493Z,33.35
2022-08-14T14:16:11.369Z,33.42
2022-08-14T14:18:42.722Z,33.57
2022-08-14T14:21:09.500Z,33.66
2022-08-14T14:23:37.887Z,33.64
2022-08-14T14:26:05.359Z,33.52
2022-08-14T14:28:32.026Z,33.30
2022-08-14T14:31:01.287Z,33.28
2022-08-14T14:33:47.874Z,32.89
2022-08-14T14:36:20.942Z,32.63
2022-08-14T14:38:52.533Z,32.41
2022-08-14T14:41:22.234Z,32.37
2022-08-14T14:43:51.630Z,32.47
2022-08-14T14:46:19.957Z,32.44
2022-08-14T14:48:54.145Z,32.49
2022-08-14T14:51:21.267Z,32.68
2022-08-14T14:53:47.947Z,32.76
2022-08-14T14:56:50.917Z,32.87
2022-08-14T14:59:01.344Z,32.96
2022-08-14T15:01:27.874Z,32.93
2022-08-14T15:03:54.704Z,32.87
2022-08-14T15:06:28.884Z,32.91
2022-08-14T15:08:59.592Z,32.82
2022-08-14T15:11:30.450Z,32.90
2022-08-14T15:13:59.148Z,32.83
2022-08-14T15:16:27.102Z,32.94
2022-08-14T15:18:53.979Z,33.03
2022-08-14T15:21:20.394Z,33.04
2022-08-14T15:23:46.856Z,33.10
2022-08-14T15:26:24.021Z,33.21
2022-08-14T15:29:06.318Z,33.24
2022-08-14T15:31:36.095Z,33.08
2022-08-14T15:34:44.655Z,33.14
2022-08-14T15:36:49.755Z,33.08
2022-08-14T15:39:16.203Z,33.10
2022-08-14T15:41:42.577Z,33.07
2022-08-14T15:44:19.074Z,33.09
2022-08-14T15:46:52.108Z,33.07
2022-08-14T15:49:19.257Z,33.14
2022-08-14T15:51:45.861Z,33.05
2022-08-14T15:54:12.844Z,32.89
2022-08-14T15:56:43.055Z,32.77
2022-08-14T15:59:09.960Z,32.67
2022-08-14T16:01:53.855Z,32.66
2022-08-14T16:04:20.849Z,32.55
2022-08-14T16:06:47.385Z,32.43
2022-08-14T16:09:22.097Z,32.24
2022-08-14T16:11:53.370Z,32.17
2022-08-14T16:14:21.187Z,31.97
2022-08-14T16:17:00.733Z,31.86
2022-08-14T16:19:30.476Z,31.69
2022-08-14T16:22:57.704Z,31.62
2022-08-14T16:25:02.153Z,31.59
2022-08-14T16:27:39.228Z,31.53
2022-08-14T16:30:12.053Z,31.44
2022-08-14T16:32:55.787Z,31.28
2022-08-14T16:35:26.570Z,31.13
2022-08-14T16:38:44.667Z,31.09
2022-08-14T16:40:57.559Z,31.05
2022-08-14T16:43:24.273Z,31.02
2022-08-14T16:45:53.880Z,30.88
2022-08-14T16:48:55.677Z,30.86
2022-08-14T16:51:07.014Z,30.88
2022-08-14T16:53:35.809Z,30.85
2022-08-14T16:56:23.106Z,30.87
2022-08-14T16:59:04.946Z,30.88
2022-08-14T17:01:31.606Z,30.82
2022-08-14T17:04:02.944Z,30.78
2022-08-14T17:06:50.258Z,30.72
2022-08-14T17:09:35.512Z,30.56
2022-08-14T17:12:33.442Z,30.47
2022-08-14T17:15:14.874Z,30.37
2022-08-14T17:17:57.687Z,30.22
2022-08-14T17:20:54.527Z,30.22
2022-08-14T17:23:12.160Z,30.08
2022-08-14T17:25:40.092Z,29.97
2022-08-14T17:28:49.926Z,29.93
2022-08-14T17:31:06.653Z,29.74
2022-08-14T17:33:40.425Z,29.67
2022-08-14T17:36:22.632Z,29.56
2022-08-14T17:39:02.688Z,29.37
2022-08-14T17:42:02.859Z,29.33
2022-08-14T17:44:33.760Z,29.15
2022-08-14T17:47:13.016Z,29.03
2022-08-14T17:49:51.500Z,29.03
2022-08-14T17:52:35.967Z,28.96
2022-08-14T17:55:09.666Z,28.77
2022-08-14T17:57:41.393Z,28.77
2022-08-14T18:00:09.952Z,28.62
2022-08-14T18:02:38.837Z,28.58
2022-08-14T18:05:08.520Z,28.44
2022-08-14T18:07:50.552Z,28.35
2022-08-14T18:10:52.179Z,28.17
2022-08-14T18:13:11.053Z,28.03
2022-08-14T18:15:39.234Z,27.95
2022-08-14T18:18:09.325Z,27.91
2022-08-14T18:21:40.263Z,27.75
2022-08-14T18:23:22.239Z,27.65
2022-08-14T18:25:52.257Z,27.48
2022-08-14T18:28:51.192Z,27.40
2022-08-14T18:31:43.687Z,27.16
2022-08-14T18:34:31.792Z,26.96
2022-08-14T18:37:11.075Z,26.80
2022-08-14T18:40:02.101Z,26.65
2022-08-14T18:42:33.093Z,26.49
2022-08-14T18:45:01.487Z,26.37
2022-08-14T18:47:32.680Z,26.22
2022-08-14T18:50:27.192Z,25.96
2022-08-14T18:53:07.709Z,25.72
2022-08-14T18:55:35.395Z,25.66
2022-08-14T18:58:01.664Z,25.47
2022-08-14T19:00:32.138Z,25.39
2022-08-14T19:03:01.282Z,25.16
2022-08-14T19:05:37.314Z,25.19
2022-08-14T19:08:24.870Z,25.08
2022-08-14T19:10:59.207Z,24.92
2022-08-14T19:13:48.478Z,24.86
2022-08-14T19:16:16.926Z,24.75
2022-08-14T19:18:53.630Z,24.59
2022-08-14T19:21:27.475Z,24.41
2022-08-14T19:24:29.782Z,24.40
2022-08-14T19:27:19.173Z,24.28
2022-08-14T19:29:51.258Z,24.17
2022-08-14T19:32:32.975Z,24.06
2022-08-14T19:35:16.516Z,23.80
2022-08-14T19:37:54.138Z,23.76
2022-08-14T19:40:37.684Z,23.72
2022-08-14T19:43:09.317Z,23.56
2022-08-14T19:45:38.228Z,23.53
2022-08-14T19:48:11.785Z,23.41
2022-08-14T19:50:41.263Z,23.36
2022-08-14T19:53:16.936Z,23.22
2022-08-14T19:55:57.137Z,23.26
2022-08-14T19:58:54.727Z,23.18
2022-08-14T20:01:36.534Z,23.13
2022-08-14T20:04:06.923Z,23.08
2022-08-14T20:06:43.268Z,23.08
2022-08-14T20:11:03.748Z,22.93
2022-08-14T20:12:04.570Z,22.93
2022-08-14T20:14:35.999Z,22.82
2022-08-14T20:17:06.717Z,22.72
2022-08-14T20:19:34.065Z,22.59
2022-08-14T20:22:36.225Z,22.62
2022-08-14T20:24:54.303Z,22.50
2022-08-14T20:27:34.345Z,22.44
2022-08-14T20:30:28.175Z,22.37
2022-08-14T20:33:07.654Z,22.23
2022-08-14T20:35:41.782Z,22.15
2022-08-14T20:38:29.773Z,22.12
2022-08-14T20:40:58.701Z,22.03
2022-08-14T20:43:35.256Z,21.90
2022-08-14T20:46:18.272Z,21.86
2022-08-14T20:49:00.280Z,21.79
2022-08-14T20:51:37.600Z,21.73
2022-08-14T20:54:05.855Z,21.67
2022-08-14T20:56:38.070Z,21.63
2022-08-14T20:59:19.392Z,21.59
2022-08-14T21:01:55.439Z,21.53
2022-08-14T21:04:26.665Z,21.49
2022-08-14T21:07:25.775Z,21.38
2022-08-14T21:10:06.234Z,21.39
2022-08-14T21:13:25.753Z,21.24
2022-08-14T21:15:36.000Z,21.16
2022-08-14T21:18:03.372Z,21.16
2022-08-14T21:20:29.973Z,21.18
2022-08-14T21:23:00.628Z,21.09
2022-08-14T21:25:31.487Z,21.04
2022-08-14T21:27:59.439Z,20.94
2022-08-14T21:30:46.427Z,20.86
2022-08-14T21:33:13.247Z,20.79
2022-08-14T21:35:41.799Z,20.83
2022-08-14T21:38:08.910Z,20.81
2022-08-14T21:40:47.655Z,20.74
2022-08-14T21:43:18.833Z,20.78
2022-08-14T21:45:55.854Z,20.75
2022-08-14T21:48:30.096Z,20.72
2022-08-14T21:51:53.452Z,20.64
2022-08-14T21:53:58.250Z,20.66
2022-08-14T21:56:37.351Z,20.56
2022-08-14T21:59:08.821Z,20.65
2022-08-14T22:02:00.577Z,20.61
2022-08-14T22:04:32.098Z,20.70
2022-08-14T22:07:03.850Z,20.69
2022-08-14T22:09:36.066Z,20.59
2022-08-14T22:12:06.724Z,20.51
2022-08-14T22:14:34.057Z,20.52
2022-08-14T22:17:13.235Z,20.57
2022-08-14T22:19:47.416Z,20.52
2022-08-14T22:22:21.310Z,20.52
2022-08-14T22:24:53.201Z,20.47
2022-08-14T22:27:21.236Z,20.41
2022-08-14T22:29:54.898Z,20.37
2022-08-14T22:32:35.505Z,20.41
2022-08-14T22:35:12.446Z,20.32
2022-08-14T22:37:44.295Z,20.18
2022-08-14T22:40:46.171Z,20.22
2022-08-14T22:43:00.423Z,20.12
2022-08-14T22:45:36.327Z,20.04
2022-08-14T22:48:05.019Z,20.16
2022-08-14T22:50:33.648Z,20.11
2022-08-14T22:53:00.286Z,20.03
2022-08-14T22:55:26.830Z,20.02
2022-08-14T22:57:53.198Z,20.07
2022-08-14T23:00:25.089Z,19.96
2022-08-14T23:02:56.611Z,19.99
2022-08-14T23:05:39.950Z,19.96
2022-08-14T23:09:00.128Z,19.82
2022-08-14T23:10:57.767Z,19.72
2022-08-14T23:13:24.133Z,19.75
2022-08-14T23:15:50.568Z,19.75
2022-08-14T23:18:16.927Z,19.73
2022-08-14T23:20:48.712Z,19.71
2022-08-14T23:23:22.377Z,19.58
2022-08-14T23:25:59.557Z,19.61
2022-08-14T23:28:33.940Z,19.60
2022-08-14T23:31:34.611Z,19.43
2022-08-14T23:34:07.604Z,19.56
2022-08-14T23:36:37.945Z,19.53
2022-08-14T23:39:21.354Z,19.45
2022-08-14T23:41:52.592Z,19.48
2022-08-14T23:44:24.238Z,19.46
2022-08-14T23:46:52.755Z,19.41
2022-08-14T23:49:25.030Z,19.34
2022-08-14T23:52:49.469Z,19.33
2022-08-14T23:54:47.930Z,19.32
2022-08-14T23:57:19.299Z,19.30
2022-08-14T23:59:54.632Z,19.33
